Time;durP1;ratioP1;P1;durP2;ratioP2;P2;SDS_P1;SDS_P2;PMS_P1;PMS_P2;Temp;Humidity;BMP_temperature;BMP_pressure;BME280_temperature;BME280_humidity;BME280_pressure;Samples;Min_cycle;Max_cycle;Signal;HPM_P1;HPM_P2
2024/03/16 00:00:06;;;;;;;23.98;13.73;;;;;;;;;;6164701;28;20126;-83
2024/03/16 00:03:12;;;;;;;66.72;38.67;;;;;;;;;;6158656;28;20043;-82
2024/03/16 00:06:14;;;;;;;30.70;20.83;;;;;;;;;;6171906;28;20066;-81
2024/03/16 00:09:16;;;;;;;29.23;16.35;;;;;;;;;;6174195;28;20112;-82
2024/03/16 00:12:34;;;;;;;27.05;16.02;;;;;;;;;;6177616;28;20047;-82
2024/03/16 00:15:37;;;;;;;23.27;14.13;;;;;;;;;;6160140;28;20062;-82
2024/03/16 00:18:39;;;;;;;22.42;13.65;;;;;;;;;;6169403;28;20558;-83
2024/03/16 00:21:42;;;;;;;21.25;11.95;;;;;;;;;;6177085;28;20063;-82
2024/03/16 00:24:44;;;;;;;22.05;12.77;;;;;;;;;;6164043;28;20177;-82
2024/03/16 00:27:49;;;;;;;22.13;12.30;;;;;;;;;;6161379;28;20050;-82
2024/03/16 00:30:51;;;;;;;22.85;12.57;;;;;;;;;;6170426;28;20579;-83
2024/03/16 00:33:54;;;;;;;21.08;12.00;;;;;;;;;;6160799;28;20057;-82
2024/03/16 00:36:57;;;;;;;28.08;12.70;;;;;;;;;;6162212;28;20042;-82
2024/03/16 00:39:59;;;;;;;21.35;9.82;;;;;;;;;;6165762;28;20601;-82
2024/03/16 00:43:02;;;;;;;16.90;9.52;;;;;;;;;;6169056;28;20055;-82
2024/03/16 00:46:04;;;;;;;15.52;8.77;;;;;;;;;;6180326;28;20046;-83
2024/03/16 00:49:10;;;;;;;12.70;8.82;;;;;;;;;;6168558;28;20460;-82
2024/03/16 00:52:13;;;;;;;15.93;9.98;;;;;;;;;;6150793;28;20061;-83
2024/03/16 00:55:19;;;;;;;15.38;11.40;;;;;;;;;;6167104;28;20050;-82
2024/03/16 00:58:27;;;;;;;14.98;9.85;;;;;;;;;;6160385;28;20884;-83
2024/03/16 01:01:33;;;;;;;21.70;11.70;;;;;;;;;;6169422;28;20052;-83
2024/03/16 01:04:37;;;;;;;19.83;9.38;;;;;;;;;;6176355;28;20648;-84
2024/03/16 01:07:40;;;;;;;16.63;11.35;;;;;;;;;;6168316;28;20435;-84
2024/03/16 01:10:42;;;;;;;18.58;10.20;;;;;;;;;;6176565;28;20539;-83
2024/03/16 01:13:45;;;;;;;18.73;12.07;;;;;;;;;;6167489;28;20520;-83
2024/03/16 01:16:47;;;;;;;18.92;10.52;;;;;;;;;;6183731;28;20054;-82
2024/03/16 01:19:49;;;;;;;19.05;10.48;;;;;;;;;;6182571;28;20133;-82
2024/03/16 01:22:52;;;;;;;20.35;10.77;;;;;;;;;;6168320;28;20945;-82
2024/03/16 01:25:55;;;;;;;20.00;10.52;;;;;;;;;;6176319;28;20054;-83
2024/03/16 01:28:59;;;;;;;18.63;9.43;;;;;;;;;;6156097;28;20058;-83
2024/03/16 01:32:04;;;;;;;19.02;9.35;;;;;;;;;;6178440;28;20043;-83
2024/03/16 01:35:06;;;;;;;15.98;10.55;;;;;;;;;;6177978;28;20089;-83
2024/03/16 01:38:09;;;;;;;16.25;9.95;;;;;;;;;;6159225;28;20543;-83
2024/03/16 01:41:11;;;;;;;17.40;8.52;;;;;;;;;;6144985;28;20046;-83
2024/03/16 01:44:13;;;;;;;17.65;10.48;;;;;;;;;;6165370;28;20054;-83
2024/03/16 01:47:16;;;;;;;16.75;8.77;;;;;;;;;;6177664;28;20046;-83
2024/03/16 01:50:23;;;;;;;18.50;11.85;;;;;;;;;;6159143;28;20047;-83
2024/03/16 01:53:25;;;;;;;20.77;9.90;;;;;;;;;;6159662;28;20936;-83
2024/03/16 01:56:28;;;;;;;21.48;10.93;;;;;;;;;;6163145;28;20128;-82
2024/03/16 01:59:34;;;;;;;17.63;10.20;;;;;;;;;;6174085;28;20127;-83
2024/03/16 02:02:37;;;;;;;19.88;10.27;;;;;;;;;;6159819;28;20043;-84
2024/03/16 02:05:41;;;;;;;20.55;10.68;;;;;;;;;;6173766;28;20062;-84
2024/03/16 02:08:46;;;;;;;19.52;11.65;;;;;;;;;;6159569;28;20089;-83
2024/03/16 02:11:49;;;;;;;19.77;10.30;;;;;;;;;;6176539;28;20051;-83
2024/03/16 02:14:52;;;;;;;19.42;8.88;;;;;;;;;;6171173;28;20452;-83
2024/03/16 02:17:55;;;;;;;19.95;9.45;;;;;;;;;;6143128;28;20063;-83
2024/03/16 02:20:57;;;;;;;15.77;8.68;;;;;;;;;;6179899;28;20703;-83
2024/03/16 02:23:59;;;;;;;11.80;8.00;;;;;;;;;;6179120;28;20055;-83
2024/03/16 02:27:02;;;;;;;15.77;8.63;;;;;;;;;;6181533;28;20046;-84
2024/03/16 02:30:05;;;;;;;15.88;8.05;;;;;;;;;;6183259;28;20536;-83
2024/03/16 02:33:09;;;;;;;14.13;8.35;;;;;;;;;;6175195;28;20107;-83
2024/03/16 02:36:13;;;;;;;13.00;6.90;;;;;;;;;;6201925;28;20074;-83
2024/03/16 02:39:17;;;;;;;16.27;8.80;;;;;;;;;;6172778;28;20539;-83
2024/03/16 02:42:19;;;;;;;19.92;8.90;;;;;;;;;;6164553;28;20130;-82
2024/03/16 02:45:22;;;;;;;14.18;8.18;;;;;;;;;;6162899;28;20043;-83
2024/03/16 02:48:24;;;;;;;11.15;7.45;;;;;;;;;;6182099;28;20039;-83
2024/03/16 02:51:28;;;;;;;16.00;7.63;;;;;;;;;;6178639;28;20108;-82
2024/03/16 02:54:33;;;;;;;13.80;9.60;;;;;;;;;;6166635;28;20524;-83
2024/03/16 02:57:36;;;;;;;14.52;9.73;;;;;;;;;;6153876;28;20051;-83
2024/03/16 03:01:10;;;;;;;15.90;9.05;;;;;;;;;;6155833;28;20050;-83
2024/03/16 03:04:17;;;;;;;12.73;6.55;;;;;;;;;;6165603;28;20050;-83
2024/03/16 03:07:19;;;;;;;14.35;7.72;;;;;;;;;;6171863;28;20125;-83
2024/03/16 03:10:28;;;;;;;16.00;8.20;;;;;;;;;;6165812;28;20061;-83
2024/03/16 03:13:32;;;;;;;14.25;7.90;;;;;;;;;;6169662;28;20077;-82
2024/03/16 03:16:35;;;;;;;17.40;7.32;;;;;;;;;;6190072;28;20053;-83
2024/03/16 03:19:37;;;;;;;14.25;7.18;;;;;;;;;;6165122;28;20053;-83
2024/03/16 03:22:40;;;;;;;14.88;7.72;;;;;;;;;;6171621;28;20069;-82
2024/03/16 03:25:44;;;;;;;12.55;7.40;;;;;;;;;;6180627;28;20653;-83
2024/03/16 03:28:47;;;;;;;15.13;8.07;;;;;;;;;;6167950;28;20050;-83
2024/03/16 03:31:49;;;;;;;17.42;7.20;;;;;;;;;;6170996;28;20061;-83
2024/03/16 03:34:51;;;;;;;14.63;8.82;;;;;;;;;;6153774;28;20881;-83
2024/03/16 03:37:55;;;;;;;15.18;8.13;;;;;;;;;;6184007;28;20046;-83
2024/03/16 03:40:58;;;;;;;16.40;8.63;;;;;;;;;;6167856;28;20594;-84
2024/03/16 03:44:09;;;;;;;14.50;8.10;;;;;;;;;;6185258;28;20081;-83
2024/03/16 03:47:11;;;;;;;17.45;10.68;;;;;;;;;;6172436;28;20164;-84
2024/03/16 03:50:13;;;;;;;18.40;9.52;;;;;;;;;;6166095;28;20050;-83
2024/03/16 03:53:17;;;;;;;16.35;9.82;;;;;;;;;;6155033;28;20043;-83
2024/03/16 03:56:19;;;;;;;17.42;9.90;;;;;;;;;;6160215;28;20138;-83
2024/03/16 03:59:21;;;;;;;15.27;8.73;;;;;;;;;;6162399;28;20133;-83
2024/03/16 04:02:24;;;;;;;20.65;9.73;;;;;;;;;;6160086;28;20047;-82
2024/03/16 04:05:26;;;;;;;15.82;9.73;;;;;;;;;;6147022;28;20047;-83
2024/03/16 04:08:29;;;;;;;20.42;10.23;;;;;;;;;;6159824;28;20050;-83
2024/03/16 04:11:32;;;;;;;14.95;8.77;;;;;;;;;;6145914;28;20053;-83
2024/03/16 04:14:35;;;;;;;16.70;8.77;;;;;;;;;;6175081;28;20158;-83
2024/03/16 04:17:37;;;;;;;12.82;7.78;;;;;;;;;;6159107;28;20047;-83
2024/03/16 04:20:41;;;;;;;13.80;9.48;;;;;;;;;;6160695;28;20077;-83
2024/03/16 04:23:43;;;;;;;15.38;8.60;;;;;;;;;;6135746;28;20058;-83
2024/03/16 04:26:46;;;;;;;18.55;9.50;;;;;;;;;;6175286;28;20047;-83
2024/03/16 04:29:48;;;;;;;15.30;8.60;;;;;;;;;;6165820;28;20054;-83
2024/03/16 04:32:50;;;;;;;16.70;9.38;;;;;;;;;;6148226;28;20050;-83
2024/03/16 04:35:54;;;;;;;14.98;9.32;;;;;;;;;;6176377;28;20776;-83
2024/03/16 04:38:56;;;;;;;15.07;8.93;;;;;;;;;;6140481;28;20058;-84
2024/03/16 04:41:59;;;;;;;12.75;8.85;;;;;;;;;;6161263;28;20539;-83
2024/03/16 04:45:01;;;;;;;14.10;9.95;;;;;;;;;;6165118;28;20077;-82
2024/03/16 04:48:04;;;;;;;12.23;8.20;;;;;;;;;;6168119;28;20043;-82
2024/03/16 04:51:07;;;;;;;14.32;8.68;;;;;;;;;;6179446;28;20055;-84
2024/03/16 04:54:09;;;;;;;12.93;8.15;;;;;;;;;;6187946;28;20331;-84
2024/03/16 04:57:12;;;;;;;16.63;8.63;;;;;;;;;;6185909;28;20055;-83
2024/03/16 05:00:15;;;;;;;12.73;7.93;;;;;;;;;;6176557;28;20054;-81
2024/03/16 05:03:22;;;;;;;12.82;7.35;;;;;;;;;;6161254;28;20046;-83
2024/03/16 05:06:26;;;;;;;14.65;7.75;;;;;;;;;;6170346;28;20047;-84
2024/03/16 05:09:28;;;;;;;12.88;7.70;;;;;;;;;;6160834;28;20057;-84
2024/03/16 05:12:30;;;;;;;14.82;7.93;;;;;;;;;;6175047;28;20547;-83
2024/03/16 05:15:33;;;;;;;11.23;7.00;;;;;;;;;;6161838;28;20168;-83
2024/03/16 05:18:38;;;;;;;13.95;7.85;;;;;;;;;;6154319;28;20081;-84
2024/03/16 05:21:42;;;;;;;14.85;7.70;;;;;;;;;;6159751;28;20057;-83
2024/03/16 05:24:44;;;;;;;26.10;12.98;;;;;;;;;;6168955;28;20197;-83
2024/03/16 05:27:47;;;;;;;19.42;13.50;;;;;;;;;;6158477;28;20126;-84
2024/03/16 05:30:52;;;;;;;14.98;10.65;;;;;;;;;;6161798;28;20512;-84
2024/03/16 05:33:55;;;;;;;14.52;7.40;;;;;;;;;;6182002;28;20112;-84
2024/03/16 05:36:57;;;;;;;16.45;9.32;;;;;;;;;;6168875;28;20062;-84
2024/03/16 05:40:00;;;;;;;15.48;9.82;;;;;;;;;;6144685;28;20113;-83
2024/03/16 05:43:03;;;;;;;13.55;9.80;;;;;;;;;;6166396;28;20053;-81
2024/03/16 05:46:05;;;;;;;29.38;16.42;;;;;;;;;;6165484;28;20061;-82
2024/03/16 05:49:08;;;;;;;32.42;18.08;;;;;;;;;;6160712;28;20381;-82
2024/03/16 05:52:10;;;;;;;24.13;14.10;;;;;;;;;;6145204;28;20153;-83
2024/03/16 05:55:15;;;;;;;22.35;13.32;;;;;;;;;;6156483;28;20638;-83
2024/03/16 05:58:20;;;;;;;14.02;9.32;;;;;;;;;;6157269;28;20039;-83
2024/03/16 06:01:23;;;;;;;13.52;8.18;;;;;;;;;;6157051;28;20101;-81
2024/03/16 06:04:27;;;;;;;53.40;23.30;;;;;;;;;;6162408;28;20054;-82
2024/03/16 06:07:29;;;;;;;56.47;28.10;;;;;;;;;;6157758;28;20043;-81
2024/03/16 06:10:32;;;;;;;16.30;11.02;;;;;;;;;;6145892;28;20050;-82
2024/03/16 06:13:35;;;;;;;16.20;10.45;;;;;;;;;;6156852;28;20133;-82
2024/03/16 06:16:37;;;;;;;14.73;9.73;;;;;;;;;;6165736;28;20059;-82
2024/03/16 06:19:40;;;;;;;19.02;10.25;;;;;;;;;;6166530;28;20049;-82
2024/03/16 06:22:42;;;;;;;15.05;9.18;;;;;;;;;;6150400;28;20055;-84
2024/03/16 06:25:48;;;;;;;12.55;8.63;;;;;;;;;;6159062;28;20050;-83
2024/03/16 06:28:56;;;;;;;12.98;8.38;;;;;;;;;;6172357;28;20042;-84
2024/03/16 06:32:05;;;;;;;13.57;8.07;;;;;;;;;;6142928;28;20046;-83
2024/03/16 06:35:09;;;;;;;16.60;10.52;;;;;;;;;;6162361;28;20751;-83
2024/03/16 06:38:11;;;;;;;14.73;10.00;;;;;;;;;;6173006;28;20035;-82
2024/03/16 06:41:14;;;;;;;11.85;8.02;;;;;;;;;;6156838;28;20050;-82
2024/03/16 06:44:17;;;;;;;15.30;10.18;;;;;;;;;;6156883;28;20085;-83
2024/03/16 06:47:19;;;;;;;16.80;9.80;;;;;;;;;;6156205;28;20031;-83
2024/03/16 06:50:22;;;;;;;39.65;21.02;;;;;;;;;;6157947;28;20157;-83
2024/03/16 06:53:26;;;;;;;16.40;10.85;;;;;;;;;;6125664;28;20070;-82
2024/03/16 06:56:28;;;;;;;17.33;8.77;;;;;;;;;;6155676;28;20101;-83
2024/03/16 06:59:30;;;;;;;14.65;9.63;;;;;;;;;;6161154;28;20100;-81
2024/03/16 07:02:33;;;;;;;13.80;9.15;;;;;;;;;;6143081;28;20047;-83
2024/03/16 07:05:37;;;;;;;16.52;11.00;;;;;;;;;;6158940;28;20051;-83
2024/03/16 07:08:39;;;;;;;15.65;10.43;;;;;;;;;;6176318;28;20050;-82
2024/03/16 07:11:44;;;;;;;16.65;11.13;;;;;;;;;;6180769;28;20038;-83
2024/03/16 07:14:49;;;;;;;17.58;11.05;;;;;;;;;;6178628;28;20042;-82
2024/03/16 07:17:51;;;;;;;18.35;9.30;;;;;;;;;;6154511;28;20134;-82
2024/03/16 07:20:57;;;;;;;14.55;9.38;;;;;;;;;;6170954;28;20058;-82
2024/03/16 07:24:01;;;;;;;14.65;10.63;;;;;;;;;;6151029;28;20838;-82
2024/03/16 07:27:05;;;;;;;17.63;9.90;;;;;;;;;;6168830;28;20077;-82
2024/03/16 07:30:07;;;;;;;14.05;8.52;;;;;;;;;;6159494;28;20401;-82
2024/03/16 07:33:12;;;;;;;14.88;9.45;;;;;;;;;;6157930;28;20520;-81
2024/03/16 07:36:14;;;;;;;13.98;9.20;;;;;;;;;;6184269;28;20948;-82
2024/03/16 07:39:17;;;;;;;14.95;9.10;;;;;;;;;;6161710;28;20047;-81
2024/03/16 07:42:19;;;;;;;14.10;8.55;;;;;;;;;;6171635;28;20050;-82
2024/03/16 07:45:21;;;;;;;16.48;9.57;;;;;;;;;;6163067;28;20047;-81
2024/03/16 07:48:25;;;;;;;17.30;10.40;;;;;;;;;;6157840;28;20734;-82
2024/03/16 07:51:31;;;;;;;24.42;14.40;;;;;;;;;;6141987;28;20863;-82
2024/03/16 07:54:34;;;;;;;17.83;11.25;;;;;;;;;;6159980;28;20223;-82
2024/03/16 07:57:37;;;;;;;11.60;8.00;;;;;;;;;;6172090;28;20562;-82
2024/03/16 08:00:41;;;;;;;16.40;10.15;;;;;;;;;;6162122;28;20951;-81
2024/03/16 08:03:43;;;;;;;14.68;9.20;;;;;;;;;;6144428;28;20563;-82
2024/03/16 08:06:46;;;;;;;11.93;7.82;;;;;;;;;;6142150;28;20201;-81
2024/03/16 08:09:48;;;;;;;11.02;7.60;;;;;;;;;;6163232;28;20046;-82
2024/03/16 08:12:50;;;;;;;7.95;5.38;;;;;;;;;;6157928;28;20055;-81
2024/03/16 08:15:53;;;;;;;13.85;9.07;;;;;;;;;;6174491;28;20094;-81
2024/03/16 08:18:56;;;;;;;13.13;9.40;;;;;;;;;;6151487;28;20082;-82
2024/03/16 08:21:58;;;;;;;12.35;8.40;;;;;;;;;;6174057;28;20134;-82
2024/03/16 08:25:01;;;;;;;12.80;7.45;;;;;;;;;;6164122;28;20658;-81
2024/03/16 08:28:04;;;;;;;10.60;7.18;;;;;;;;;;6165702;28;20047;-82
2024/03/16 08:31:08;;;;;;;9.80;6.65;;;;;;;;;;6165892;28;20079;-81
2024/03/16 08:34:12;;;;;;;12.20;8.15;;;;;;;;;;6165933;28;20057;-82
2024/03/16 08:37:15;;;;;;;11.23;7.90;;;;;;;;;;6181981;28;20057;-81
2024/03/16 08:40:18;;;;;;;9.55;6.63;;;;;;;;;;6132408;28;20046;-82
2024/03/16 08:43:21;;;;;;;10.93;7.40;;;;;;;;;;6177826;28;20105;-81
2024/03/16 08:46:23;;;;;;;8.18;6.10;;;;;;;;;;6166319;28;20093;-82
2024/03/16 08:49:29;;;;;;;9.40;6.15;;;;;;;;;;6160969;28;20049;-82
2024/03/16 08:52:32;;;;;;;10.77;7.10;;;;;;;;;;6174604;28;20050;-82
2024/03/16 08:55:39;;;;;;;10.75;6.47;;;;;;;;;;6160728;28;20051;-82
2024/03/16 08:58:42;;;;;;;10.45;7.00;;;;;;;;;;6161761;28;20051;-82
2024/03/16 09:01:49;;;;;;;9.93;6.13;;;;;;;;;;6165595;28;20046;-82
2024/03/16 09:04:51;;;;;;;7.95;4.82;;;;;;;;;;6157197;28;20050;-82
2024/03/16 09:08:03;;;;;;;9.43;5.38;;;;;;;;;;6144144;28;20046;-83
2024/03/16 09:11:05;;;;;;;6.53;4.10;;;;;;;;;;6177387;28;20185;-82
2024/03/16 09:14:09;;;;;;;10.90;6.60;;;;;;;;;;6170211;28;20054;-83
2024/03/16 09:17:11;;;;;;;7.82;5.03;;;;;;;;;;6163103;28;20799;-83
2024/03/16 09:20:14;;;;;;;10.80;6.50;;;;;;;;;;6160822;28;20053;-83
2024/03/16 09:23:22;;;;;;;8.45;5.43;;;;;;;;;;6143341;28;20449;-83
2024/03/16 09:26:24;;;;;;;6.60;3.17;;;;;;;;;;6174162;28;20050;-82
2024/03/16 09:29:27;;;;;;;8.70;5.68;;;;;;;;;;6150897;28;20520;-82
2024/03/16 09:32:41;;;;;;;7.18;5.00;;;;;;;;;;6195353;28;20027;-83
2024/03/16 09:35:47;;;;;;;10.55;6.07;;;;;;;;;;6200182;28;20134;-82
2024/03/16 09:38:50;;;;;;;7.72;5.40;;;;;;;;;;6177303;28;20042;-81
2024/03/16 09:41:54;;;;;;;8.85;6.03;;;;;;;;;;6122813;28;20047;-82
2024/03/16 09:44:57;;;;;;;6.63;5.25;;;;;;;;;;6157346;28;20865;-82
2024/03/16 09:48:00;;;;;;;6.97;4.35;;;;;;;;;;6150973;28;20043;-82
2024/03/16 09:51:01;;;;;;;9.98;5.60;;;;;;;;;;6134216;28;20078;-83
2024/03/16 09:54:09;;;;;;;7.13;4.50;;;;;;;;;;6122840;28;20053;-83
2024/03/16 09:57:17;;;;;;;8.05;5.95;;;;;;;;;;6128732;28;20413;-83
2024/03/16 10:00:21;;;;;;;8.40;5.65;;;;;;;;;;6144542;28;20039;-83
2024/03/16 10:03:22;;;;;;;6.57;4.13;;;;;;;;;;6160823;28;20053;-83
2024/03/16 10:06:25;;;;;;;8.43;4.93;;;;;;;;;;6159533;28;20043;-83
2024/03/16 10:09:27;;;;;;;10.10;5.05;;;;;;;;;;6114067;28;20049;-82
2024/03/16 10:12:29;;;;;;;8.18;4.00;;;;;;;;;;6151154;28;20051;-83
2024/03/16 10:15:31;;;;;;;6.38;4.43;;;;;;;;;;6163587;28;20446;-83
2024/03/16 10:18:41;;;;;;;8.50;4.40;;;;;;;;;;6162171;28;20046;-85
2024/03/16 10:21:46;;;;;;;8.82;6.45;;;;;;;;;;6167805;28;20042;-83
2024/03/16 10:24:49;;;;;;;7.45;4.80;;;;;;;;;;6182967;28;20440;-83
2024/03/16 10:27:51;;;;;;;7.80;4.38;;;;;;;;;;6169117;28;20062;-83
2024/03/16 10:30:53;;;;;;;8.63;5.57;;;;;;;;;;6157021;28;20630;-83
2024/03/16 10:33:56;;;;;;;6.55;4.88;;;;;;;;;;6143697;28;20051;-83
2024/03/16 10:36:59;;;;;;;6.60;4.93;;;;;;;;;;6141118;28;20047;-83
2024/03/16 10:40:01;;;;;;;11.55;4.80;;;;;;;;;;6168609;28;20705;-83
2024/03/16 10:43:02;;;;;;;8.82;5.57;;;;;;;;;;6128419;28;20089;-83
2024/03/16 10:46:09;;;;;;;6.20;4.35;;;;;;;;;;6150710;28;20102;-82
2024/03/16 10:49:10;;;;;;;6.88;4.13;;;;;;;;;;6133722;28;20054;-83
2024/03/16 10:52:13;;;;;;;8.82;4.45;;;;;;;;;;6143849;28;20057;-82
2024/03/16 10:55:24;;;;;;;7.45;4.80;;;;;;;;;;6146362;28;20039;-83
2024/03/16 10:58:27;;;;;;;6.32;4.30;;;;;;;;;;6131884;28;20043;-83
2024/03/16 11:01:32;;;;;;;8.30;3.67;;;;;;;;;;6178271;28;20154;-83
2024/03/16 11:04:50;;;;;;;7.03;4.22;;;;;;;;;;6163886;28;20599;-82
2024/03/16 11:07:58;;;;;;;5.10;3.30;;;;;;;;;;6162782;28;20066;-83
2024/03/16 11:10:59;;;;;;;7.78;3.90;;;;;;;;;;6161847;28;20153;-83
2024/03/16 11:14:11;;;;;;;8.48;4.70;;;;;;;;;;6146135;28;20560;-83
2024/03/16 11:17:26;;;;;;;7.70;6.47;;;;;;;;;;6168987;28;20198;-82
2024/03/16 11:20:36;;;;;;;8.00;4.30;;;;;;;;;;6161596;28;20046;-83
2024/03/16 11:23:40;;;;;;;8.27;3.88;;;;;;;;;;6164576;28;20833;-83
2024/03/16 11:26:43;;;;;;;6.82;4.57;;;;;;;;;;6147619;28;20038;-84
2024/03/16 11:29:58;;;;;;;6.60;3.65;;;;;;;;;;6139971;28;20053;-83
2024/03/16 11:33:33;;;;;;;10.45;5.05;;;;;;;;;;6128598;28;20054;-82
2024/03/16 11:36:41;;;;;;;5.75;3.28;;;;;;;;;;6093175;28;20551;-82
2024/03/16 11:39:44;;;;;;;9.00;3.60;;;;;;;;;;6157349;28;20050;-82
2024/03/16 11:42:48;;;;;;;10.18;3.75;;;;;;;;;;6114824;28;20444;-83
2024/03/16 11:45:51;;;;;;;5.75;3.80;;;;;;;;;;6144047;28;20618;-82
2024/03/16 11:48:54;;;;;;;11.27;4.53;;;;;;;;;;6142263;28;20549;-83
2024/03/16 11:51:55;;;;;;;5.40;3.10;;;;;;;;;;6128546;28;20047;-83
2024/03/16 11:54:56;;;;;;;8.98;3.63;;;;;;;;;;6146042;28;20793;-83
2024/03/16 11:58:05;;;;;;;5.65;3.30;;;;;;;;;;6157153;28;20077;-83
2024/03/16 12:01:15;;;;;;;8.93;6.18;;;;;;;;;;6142831;28;20057;-83
2024/03/16 12:04:20;;;;;;;5.97;3.53;;;;;;;;;;6147332;28;20046;-84
2024/03/16 12:07:24;;;;;;;6.47;2.83;;;;;;;;;;6157277;28;20058;-84
2024/03/16 12:10:25;;;;;;;8.95;3.25;;;;;;;;;;6127893;28;20041;-82
2024/03/16 12:13:26;;;;;;;8.40;3.35;;;;;;;;;;6143667;28;20047;-83
2024/03/16 12:16:27;;;;;;;6.57;2.63;;;;;;;;;;6158284;28;20891;-83
2024/03/16 12:19:32;;;;;;;4.07;2.40;;;;;;;;;;6139901;28;20035;-83
2024/03/16 12:22:34;;;;;;;8.48;4.55;;;;;;;;;;6153858;28;20043;-83
2024/03/16 12:25:36;;;;;;;6.63;3.92;;;;;;;;;;6159330;28;20065;-82
2024/03/16 12:28:37;;;;;;;11.57;5.80;;;;;;;;;;6162702;28;20042;-82
2024/03/16 12:31:39;;;;;;;7.88;2.90;;;;;;;;;;6160474;28;20572;-82
2024/03/16 12:34:40;;;;;;;4.95;3.17;;;;;;;;;;6145243;28;20043;-82
2024/03/16 12:38:16;;;;;;;6.30;4.15;;;;;;;;;;6130259;29;20433;-83
2024/03/16 12:41:17;;;;;;;10.68;4.05;;;;;;;;;;6185420;28;20055;-83
2024/03/16 12:44:20;;;;;;;5.78;3.75;;;;;;;;;;6130755;28;20039;-83
2024/03/16 12:47:21;;;;;;;6.93;2.88;;;;;;;;;;6111389;28;20083;-82
2024/03/16 12:50:22;;;;;;;10.50;3.33;;;;;;;;;;6103758;28;21097;-82
2024/03/16 12:53:24;;;;;;;5.80;3.47;;;;;;;;;;6102900;29;20058;-82
2024/03/16 12:56:26;;;;;;;7.38;5.13;;;;;;;;;;6108603;28;20059;-82
2024/03/16 12:59:27;;;;;;;6.82;3.83;;;;;;;;;;6106071;28;20054;-81
2024/03/16 13:02:29;;;;;;;5.97;2.85;;;;;;;;;;6125827;28;20812;-82
2024/03/16 13:05:30;;;;;;;10.20;3.97;;;;;;;;;;6088066;29;20110;-83
2024/03/16 13:08:31;;;;;;;9.20;4.28;;;;;;;;;;6119540;28;20082;-83
2024/03/16 13:11:35;;;;;;;7.50;4.25;;;;;;;;;;6103277;28;20950;-82
2024/03/16 13:14:40;;;;;;;4.90;2.72;;;;;;;;;;6138965;28;20051;-82
2024/03/16 13:17:44;;;;;;;6.60;3.10;;;;;;;;;;6087938;29;20702;-84
2024/03/16 13:20:45;;;;;;;7.28;3.45;;;;;;;;;;6126912;29;20044;-83
2024/03/16 13:23:47;;;;;;;8.02;3.92;;;;;;;;;;6111553;28;20054;-83
2024/03/16 13:26:49;;;;;;;7.97;3.80;;;;;;;;;;6106378;29;20102;-84
2024/03/16 13:29:51;;;;;;;13.60;5.90;;;;;;;;;;6134033;29;20047;-84
2024/03/16 13:32:52;;;;;;;6.47;3.80;;;;;;;;;;6148119;28;20568;-84
2024/03/16 13:35:54;;;;;;;8.52;4.82;;;;;;;;;;6145019;28;20046;-83
2024/03/16 13:38:55;;;;;;;6.88;4.00;;;;;;;;;;6182357;28;20043;-83
2024/03/16 13:41:58;;;;;;;7.28;3.95;;;;;;;;;;6153318;28;20047;-82
2024/03/16 13:45:00;;;;;;;6.20;2.97;;;;;;;;;;6131923;28;20051;-82
2024/03/16 13:48:03;;;;;;;6.65;4.05;;;;;;;;;;6158803;28;20039;-84
2024/03/16 13:51:06;;;;;;;5.75;3.20;;;;;;;;;;6171641;28;20043;-83
2024/03/16 13:54:08;;;;;;;6.57;4.13;;;;;;;;;;6180320;28;20110;-84
2024/03/16 13:57:10;;;;;;;7.13;3.60;;;;;;;;;;6165464;28;20046;-84
2024/03/16 14:00:13;;;;;;;4.82;3.10;;;;;;;;;;6181454;28;20047;-84
2024/03/16 14:03:15;;;;;;;4.80;3.10;;;;;;;;;;6202376;28;20050;-85
2024/03/16 14:06:17;;;;;;;7.28;3.65;;;;;;;;;;6176583;28;20042;-85
2024/03/16 14:09:20;;;;;;;4.50;2.53;;;;;;;;;;6194634;28;20062;-85
2024/03/16 14:12:21;;;;;;;6.75;4.13;;;;;;;;;;6173565;28;20503;-85
2024/03/16 14:15:24;;;;;;;5.13;2.88;;;;;;;;;;6150260;28;20043;-85
2024/03/16 14:18:26;;;;;;;9.05;3.63;;;;;;;;;;6180144;28;20045;-85
2024/03/16 14:21:29;;;;;;;6.25;3.58;;;;;;;;;;6159183;28;20047;-85
2024/03/16 14:24:31;;;;;;;4.45;3.00;;;;;;;;;;6173618;28;20043;-86
2024/03/16 14:27:35;;;;;;;5.65;3.47;;;;;;;;;;6153650;28;20046;-85
2024/03/16 14:30:36;;;;;;;6.22;3.53;;;;;;;;;;6167996;28;20519;-85
2024/03/16 14:33:38;;;;;;;10.25;4.78;;;;;;;;;;6152452;28;20055;-85
2024/03/16 14:36:39;;;;;;;7.40;3.47;;;;;;;;;;6155141;28;20054;-86
2024/03/16 14:39:40;;;;;;;6.05;3.65;;;;;;;;;;6137819;28;20039;-83
2024/03/16 14:42:44;;;;;;;10.25;5.13;;;;;;;;;;6167254;28;20046;-85
2024/03/16 14:45:49;;;;;;;5.90;3.30;;;;;;;;;;6149926;28;20038;-85
2024/03/16 14:48:51;;;;;;;4.47;2.83;;;;;;;;;;6136632;28;20058;-85
2024/03/16 14:51:55;;;;;;;8.15;3.40;;;;;;;;;;6148195;28;20867;-85
2024/03/16 14:54:58;;;;;;;5.25;2.80;;;;;;;;;;6152249;28;20908;-85
2024/03/16 14:58:00;;;;;;;6.47;2.75;;;;;;;;;;6159005;28;20050;-84
2024/03/16 15:01:01;;;;;;;4.80;2.75;;;;;;;;;;6205032;28;20039;-85
2024/03/16 15:04:04;;;;;;;5.53;2.25;;;;;;;;;;6184071;28;20030;-85
2024/03/16 15:07:06;;;;;;;5.05;3.60;;;;;;;;;;6175358;28;20538;-83
2024/03/16 15:10:08;;;;;;;4.40;3.28;;;;;;;;;;6145053;28;20046;-83
2024/03/16 15:13:10;;;;;;;4.82;3.10;;;;;;;;;;6145374;28;20042;-84
2024/03/16 15:16:12;;;;;;;5.13;2.80;;;;;;;;;;6160661;28;20035;-84
2024/03/16 15:19:14;;;;;;;5.35;3.05;;;;;;;;;;6127747;28;20057;-84
2024/03/16 15:22:15;;;;;;;8.80;3.28;;;;;;;;;;6141944;28;20708;-84
2024/03/16 15:25:18;;;;;;;5.07;3.40;;;;;;;;;;6145296;28;20180;-83
2024/03/16 15:28:28;;;;;;;5.80;3.53;;;;;;;;;;6166519;28;20034;-84
2024/03/16 15:31:30;;;;;;;8.30;4.13;;;;;;;;;;6146563;28;20116;-84
2024/03/16 15:34:33;;;;;;;6.43;3.60;;;;;;;;;;6159469;28;20047;-84
2024/03/16 15:37:34;;;;;;;5.95;3.13;;;;;;;;;;6176187;28;20055;-86
2024/03/16 15:40:36;;;;;;;7.60;3.65;;;;;;;;;;6160579;28;20042;-84
2024/03/16 15:43:39;;;;;;;5.25;4.10;;;;;;;;;;6162034;28;20203;-84
2024/03/16 15:46:42;;;;;;;5.32;3.45;;;;;;;;;;6125032;28;20058;-85
2024/03/16 15:49:44;;;;;;;6.88;4.53;;;;;;;;;;6147277;28;20739;-84
2024/03/16 15:52:47;;;;;;;11.57;7.10;;;;;;;;;;6174764;28;20066;-84
2024/03/16 15:55:50;;;;;;;6.82;4.57;;;;;;;;;;6158790;28;20058;-84
2024/03/16 15:58:53;;;;;;;6.43;3.95;;;;;;;;;;6162791;28;20039;-84
2024/03/16 16:01:55;;;;;;;6.75;4.30;;;;;;;;;;6144882;28;20058;-83
2024/03/16 16:04:56;;;;;;;8.05;4.85;;;;;;;;;;6144499;28;20852;-84
2024/03/16 16:07:59;;;;;;;7.22;5.55;;;;;;;;;;6145578;28;20496;-84
2024/03/16 16:11:02;;;;;;;13.07;4.90;;;;;;;;;;6159935;28;20039;-84
2024/03/16 16:14:05;;;;;;;6.10;4.60;;;;;;;;;;6158485;28;20053;-84
2024/03/16 16:17:06;;;;;;;7.85;5.03;;;;;;;;;;6144112;28;20054;-84
2024/03/16 16:20:10;;;;;;;8.73;6.35;;;;;;;;;;6136517;28;20043;-84
2024/03/16 16:23:17;;;;;;;7.95;6.57;;;;;;;;;;6198825;28;20087;-84
2024/03/16 16:26:20;;;;;;;10.75;5.43;;;;;;;;;;6184820;28;20039;-83
2024/03/16 16:29:22;;;;;;;10.27;6.60;;;;;;;;;;6166775;28;20038;-83
2024/03/16 16:32:24;;;;;;;12.18;6.97;;;;;;;;;;6142898;28;20055;-84
2024/03/16 16:35:25;;;;;;;6.20;4.18;;;;;;;;;;6129102;28;20598;-84
2024/03/16 16:38:26;;;;;;;9.05;6.47;;;;;;;;;;6143837;28;20401;-84
2024/03/16 16:41:28;;;;;;;7.68;4.85;;;;;;;;;;6159331;28;20077;-83
2024/03/16 16:44:30;;;;;;;7.63;5.57;;;;;;;;;;6141944;28;20786;-84
2024/03/16 16:47:32;;;;;;;9.88;6.05;;;;;;;;;;6161556;28;20499;-84
2024/03/16 16:50:34;;;;;;;9.45;5.43;;;;;;;;;;6124129;28;20043;-84
2024/03/16 16:53:37;;;;;;;8.13;5.75;;;;;;;;;;6139080;28;20058;-84
2024/03/16 16:56:38;;;;;;;16.55;8.55;;;;;;;;;;6127636;28;20121;-84
2024/03/16 16:59:40;;;;;;;9.02;5.97;;;;;;;;;;6141698;28;20039;-84
2024/03/16 17:02:41;;;;;;;9.07;6.00;;;;;;;;;;6126983;28;20100;-84
2024/03/16 17:05:44;;;;;;;11.30;6.78;;;;;;;;;;6111201;28;20055;-84
2024/03/16 17:08:45;;;;;;;12.10;8.02;;;;;;;;;;6144455;28;20391;-84
2024/03/16 17:11:48;;;;;;;12.18;7.13;;;;;;;;;;6144026;28;20047;-84
2024/03/16 17:14:50;;;;;;;17.83;10.68;;;;;;;;;;6140889;28;20050;-84
2024/03/16 17:17:52;;;;;;;9.77;7.10;;;;;;;;;;6154257;28;20503;-84
2024/03/16 17:20:53;;;;;;;9.75;5.97;;;;;;;;;;6141812;28;20138;-83
2024/03/16 17:23:54;;;;;;;14.82;10.77;;;;;;;;;;6126055;28;20474;-84
2024/03/16 17:26:55;;;;;;;18.85;11.98;;;;;;;;;;6154873;28;20051;-84
2024/03/16 17:29:57;;;;;;;12.45;10.00;;;;;;;;;;6141901;28;20061;-84
2024/03/16 17:32:58;;;;;;;9.82;7.55;;;;;;;;;;6158928;28;20078;-83
2024/03/16 17:36:00;;;;;;;9.60;7.20;;;;;;;;;;6142597;28;20692;-83
2024/03/16 17:39:02;;;;;;;11.00;5.72;;;;;;;;;;6142338;28;20105;-82
2024/03/16 17:42:05;;;;;;;10.77;8.15;;;;;;;;;;6158858;28;20043;-82
2024/03/16 17:45:07;;;;;;;8.82;5.60;;;;;;;;;;6134027;28;20113;-82
2024/03/16 17:48:09;;;;;;;8.98;5.50;;;;;;;;;;6128789;28;20054;-80
2024/03/16 17:51:10;;;;;;;11.35;7.93;;;;;;;;;;6160424;28;20047;-81
2024/03/16 17:54:16;;;;;;;10.32;6.63;;;;;;;;;;6163007;28;20058;-82
2024/03/16 17:57:17;;;;;;;10.52;6.95;;;;;;;;;;6148613;28;20046;-82
2024/03/16 18:00:21;;;;;;;11.45;6.78;;;;;;;;;;6146671;28;20035;-81
2024/03/16 18:03:23;;;;;;;10.95;7.75;;;;;;;;;;6166395;28;21024;-80
2024/03/16 18:06:25;;;;;;;11.38;7.88;;;;;;;;;;6133432;28;20077;-81